Time;durP1;ratioP1;P1;durP2;ratioP2;P2;SDS_P1;SDS_P2;PMS_P1;PMS_P2;Temp;Humidity;BMP_temperature;BMP_pressure;BME280_temperature;BME280_humidity;BME280_pressure;Samples;Min_cycle;Max_cycle;Signal;HPM_P1;HPM_P2
2023/04/08 00:01:39;;;;;;;13.10;9.63;;;;;;;;;;4996209;28;20046;-87
2023/04/08 00:04:08;;;;;;;13.57;9.00;;;;;;;;;;4995246;28;20042;-88
2023/04/08 00:06:34;;;;;;;16.05;9.90;;;;;;;;;;4998201;28;20520;-88
2023/04/08 00:09:00;;;;;;;12.80;9.07;;;;;;;;;;5000238;28;20045;-87
2023/04/08 00:11:26;;;;;;;14.05;9.48;;;;;;;;;;5002030;28;20050;-88
2023/04/08 00:13:52;;;;;;;15.73;9.75;;;;;;;;;;5000813;28;20053;-87
2023/04/08 00:16:18;;;;;;;13.77;9.50;;;;;;;;;;5002977;28;20046;-88
2023/04/08 00:18:44;;;;;;;14.35;9.55;;;;;;;;;;5001724;28;20101;-88
2023/04/08 00:21:10;;;;;;;12.82;8.85;;;;;;;;;;4997461;28;20043;-88
2023/04/08 00:23:36;;;;;;;16.20;8.88;;;;;;;;;;4998737;28;20111;-88
2023/04/08 00:26:03;;;;;;;12.85;9.07;;;;;;;;;;5002966;28;20183;-87
2023/04/08 00:28:31;;;;;;;14.52;9.45;;;;;;;;;;4994514;28;20226;-87
2023/04/08 00:30:57;;;;;;;14.30;9.70;;;;;;;;;;4986110;28;20086;-88
2023/04/08 00:33:24;;;;;;;14.88;9.55;;;;;;;;;;5001293;28;20163;-87
2023/04/08 00:35:51;;;;;;;13.57;9.80;;;;;;;;;;4994135;28;20065;-87
2023/04/08 00:38:17;;;;;;;14.85;10.20;;;;;;;;;;5001049;28;20053;-88
2023/04/08 00:40:43;;;;;;;14.50;10.32;;;;;;;;;;5000085;28;20039;-87
2023/04/08 00:43:09;;;;;;;14.15;9.73;;;;;;;;;;5004941;28;20050;-87
2023/04/08 00:45:35;;;;;;;14.90;9.65;;;;;;;;;;5006818;28;20089;-88
2023/04/08 00:48:02;;;;;;;13.75;10.25;;;;;;;;;;5005206;28;20105;-87
2023/04/08 00:50:28;;;;;;;17.02;11.10;;;;;;;;;;5003033;28;20085;-88
2023/04/08 00:52:54;;;;;;;16.38;10.10;;;;;;;;;;5008130;28;20042;-87
2023/04/08 00:55:21;;;;;;;15.93;10.70;;;;;;;;;;5012876;28;20068;-88
2023/04/08 00:57:47;;;;;;;18.33;11.40;;;;;;;;;;5009778;28;20404;-87
2023/04/08 01:00:14;;;;;;;15.35;11.00;;;;;;;;;;5007089;28;20042;-88
2023/04/08 01:02:58;;;;;;;14.50;10.82;;;;;;;;;;5007454;28;20042;-88
2023/04/08 01:05:45;;;;;;;17.20;11.48;;;;;;;;;;4990233;28;20046;-87
2023/04/08 01:08:11;;;;;;;16.60;11.10;;;;;;;;;;5004852;28;20670;-88
2023/04/08 01:10:40;;;;;;;18.10;11.57;;;;;;;;;;4996892;28;20086;-88
2023/04/08 01:13:10;;;;;;;15.85;11.45;;;;;;;;;;5012563;28;20054;-87
2023/04/08 01:15:38;;;;;;;15.77;10.63;;;;;;;;;;4998049;28;20070;-88
2023/04/08 01:18:11;;;;;;;15.43;10.00;;;;;;;;;;4996120;28;20051;-88
2023/04/08 01:20:38;;;;;;;17.92;11.45;;;;;;;;;;4999323;28;20093;-88
2023/04/08 01:23:25;;;;;;;17.08;11.52;;;;;;;;;;4999238;28;20043;-88
2023/04/08 01:25:54;;;;;;;15.90;11.80;;;;;;;;;;5000292;28;20378;-88
2023/04/08 01:28:22;;;;;;;16.90;12.40;;;;;;;;;;4996532;28;20306;-88
2023/04/08 01:30:49;;;;;;;16.10;11.88;;;;;;;;;;5006651;28;20054;-87
2023/04/08 01:33:16;;;;;;;17.20;12.27;;;;;;;;;;5014632;28;20027;-87
2023/04/08 01:35:42;;;;;;;18.13;12.18;;;;;;;;;;5014903;28;20049;-88
2023/04/08 01:38:09;;;;;;;19.00;12.30;;;;;;;;;;5007315;28;20051;-87
2023/04/08 01:40:37;;;;;;;16.95;12.60;;;;;;;;;;4987123;28;20397;-87
2023/04/08 01:43:05;;;;;;;18.63;12.93;;;;;;;;;;5005209;28;20559;-88
2023/04/08 01:45:31;;;;;;;18.52;12.55;;;;;;;;;;5005811;28;20050;-88
2023/04/08 01:47:58;;;;;;;18.10;13.65;;;;;;;;;;5004814;28;20103;-87
2023/04/08 01:50:24;;;;;;;20.85;13.50;;;;;;;;;;5003405;28;20057;-88
2023/04/08 01:52:53;;;;;;;19.10;13.85;;;;;;;;;;5005511;28;20054;-88
2023/04/08 01:55:20;;;;;;;21.48;14.50;;;;;;;;;;5004339;28;20121;-88
2023/04/08 01:57:52;;;;;;;20.33;13.95;;;;;;;;;;5005140;28;20048;-88
2023/04/08 02:00:20;;;;;;;20.60;14.63;;;;;;;;;;4988631;28;20053;-88
2023/04/08 02:02:47;;;;;;;21.17;14.90;;;;;;;;;;5005468;28;20042;-88
2023/04/08 02:05:13;;;;;;;19.38;14.27;;;;;;;;;;5019923;28;20049;-87
2023/04/08 02:07:39;;;;;;;21.55;14.35;;;;;;;;;;5000786;28;20110;-88
2023/04/08 02:10:06;;;;;;;19.30;15.45;;;;;;;;;;5003209;28;20054;-87
2023/04/08 02:12:33;;;;;;;19.30;15.30;;;;;;;;;;5006179;28;20042;-88
2023/04/08 02:14:59;;;;;;;20.67;15.50;;;;;;;;;;5004201;28;20484;-88
2023/04/08 02:17:46;;;;;;;23.33;15.73;;;;;;;;;;5004789;28;20043;-88
2023/04/08 02:20:18;;;;;;;19.88;15.88;;;;;;;;;;5004046;28;20049;-88
2023/04/08 02:22:53;;;;;;;20.50;15.25;;;;;;;;;;5005440;28;20050;-87
2023/04/08 02:25:21;;;;;;;24.98;15.85;;;;;;;;;;5005400;28;20504;-87
2023/04/08 02:27:48;;;;;;;21.17;16.40;;;;;;;;;;5005141;28;20102;-87
2023/04/08 02:30:15;;;;;;;22.63;16.98;;;;;;;;;;5005161;28;20046;-88
2023/04/08 02:32:41;;;;;;;21.25;15.68;;;;;;;;;;5004247;28;20065;-87
2023/04/08 02:35:09;;;;;;;21.17;16.23;;;;;;;;;;5004454;28;20042;-87
2023/04/08 02:37:35;;;;;;;23.83;17.13;;;;;;;;;;4996772;28;20081;-88
2023/04/08 02:40:01;;;;;;;23.25;16.65;;;;;;;;;;5005138;28;20049;-88
2023/04/08 02:42:27;;;;;;;24.27;16.50;;;;;;;;;;5003815;28;20452;-87
2023/04/08 02:44:53;;;;;;;22.25;16.80;;;;;;;;;;5003751;28;20054;-86
2023/04/08 02:47:19;;;;;;;22.40;16.70;;;;;;;;;;4994325;28;20047;-88
2023/04/08 02:49:46;;;;;;;26.95;19.35;;;;;;;;;;4999957;28;20065;-88
2023/04/08 02:52:12;;;;;;;28.88;18.58;;;;;;;;;;5004700;28;20054;-87
2023/04/08 02:54:38;;;;;;;25.80;17.92;;;;;;;;;;5014050;28;20046;-87
2023/04/08 02:57:04;;;;;;;26.13;16.75;;;;;;;;;;5000266;28;20054;-88
2023/04/08 02:59:30;;;;;;;20.98;14.38;;;;;;;;;;5009542;28;20049;-87
2023/04/08 03:01:56;;;;;;;26.05;19.00;;;;;;;;;;5006521;28;20046;-88
2023/04/08 03:04:22;;;;;;;26.50;17.92;;;;;;;;;;5002512;28;20038;-87
2023/04/08 03:06:48;;;;;;;22.65;16.48;;;;;;;;;;5005080;28;20050;-87
2023/04/08 03:09:14;;;;;;;27.88;18.05;;;;;;;;;;5004165;28;20042;-87
2023/04/08 03:11:40;;;;;;;27.67;18.63;;;;;;;;;;5004890;28;20420;-88
2023/04/08 03:14:07;;;;;;;25.55;18.17;;;;;;;;;;5005593;28;20102;-87
2023/04/08 03:16:33;;;;;;;23.95;17.60;;;;;;;;;;5004813;28;20117;-88
2023/04/08 03:18:59;;;;;;;28.23;19.23;;;;;;;;;;4987561;28;20485;-88
2023/04/08 03:21:25;;;;;;;28.20;18.73;;;;;;;;;;5003347;28;20042;-88
2023/04/08 03:23:51;;;;;;;23.77;18.02;;;;;;;;;;5005060;28;20043;-88
2023/04/08 03:26:18;;;;;;;25.52;18.02;;;;;;;;;;4989142;28;20061;-88
2023/04/08 03:28:44;;;;;;;28.02;20.20;;;;;;;;;;4997657;28;20049;-88
2023/04/08 03:31:10;;;;;;;29.27;20.05;;;;;;;;;;5003461;28;20069;-88
2023/04/08 03:33:36;;;;;;;29.17;20.00;;;;;;;;;;5004462;28;20053;-88
2023/04/08 03:36:02;;;;;;;26.80;19.10;;;;;;;;;;5004589;28;20050;-88
2023/04/08 03:38:28;;;;;;;26.33;19.77;;;;;;;;;;5004528;28;20042;-88
2023/04/08 03:40:54;;;;;;;28.25;19.40;;;;;;;;;;5001787;28;20459;-87
2023/04/08 03:43:20;;;;;;;27.20;19.67;;;;;;;;;;5002683;28;20045;-88
2023/04/08 03:45:47;;;;;;;29.45;19.67;;;;;;;;;;4994435;28;20050;-87
2023/04/08 03:48:13;;;;;;;29.02;19.85;;;;;;;;;;5004892;28;20047;-88
2023/04/08 03:50:39;;;;;;;31.00;19.73;;;;;;;;;;5003095;28;20061;-88
2023/04/08 03:53:05;;;;;;;30.75;22.63;;;;;;;;;;5004604;28;20555;-88
2023/04/08 03:55:31;;;;;;;29.38;20.98;;;;;;;;;;5005835;28;20050;-88
2023/04/08 03:57:57;;;;;;;32.67;21.77;;;;;;;;;;5004765;28;20117;-88
2023/04/08 04:00:23;;;;;;;32.90;21.67;;;;;;;;;;4986917;28;20053;-87
2023/04/08 04:02:49;;;;;;;33.42;22.73;;;;;;;;;;5000460;28;20459;-88
2023/04/08 04:05:15;;;;;;;31.90;21.45;;;;;;;;;;5017519;28;20061;-85
2023/04/08 04:07:42;;;;;;;32.78;22.02;;;;;;;;;;5018436;28;20030;-86
2023/04/08 04:10:09;;;;;;;30.60;22.25;;;;;;;;;;5008834;28;20523;-87
2023/04/08 04:12:35;;;;;;;30.40;20.85;;;;;;;;;;5000674;28;20057;-86
2023/04/08 04:15:01;;;;;;;32.05;22.02;;;;;;;;;;5002916;28;21368;-88
2023/04/08 04:17:27;;;;;;;33.13;22.88;;;;;;;;;;5003367;28;20051;-88
2023/04/08 04:19:53;;;;;;;32.05;23.15;;;;;;;;;;5007618;28;20497;-88
2023/04/08 04:22:19;;;;;;;32.63;22.20;;;;;;;;;;5005212;28;20069;-87
2023/04/08 04:24:48;;;;;;;33.83;22.40;;;;;;;;;;4989886;28;20070;-89
2023/04/08 04:27:17;;;;;;;34.55;22.48;;;;;;;;;;4998372;28;20046;-88
2023/04/08 04:29:43;;;;;;;34.85;23.98;;;;;;;;;;5004769;28;20050;-88
2023/04/08 04:32:09;;;;;;;32.10;21.98;;;;;;;;;;4997041;28;20081;-88
2023/04/08 04:34:35;;;;;;;32.63;23.33;;;;;;;;;;5005983;28;20072;-88
2023/04/08 04:37:01;;;;;;;32.38;21.95;;;;;;;;;;5004865;28;20054;-88
2023/04/08 04:39:27;;;;;;;32.50;21.98;;;;;;;;;;5007907;28;20078;-88
2023/04/08 04:41:54;;;;;;;33.33;22.05;;;;;;;;;;5002586;28;20046;-89
2023/04/08 04:44:20;;;;;;;31.27;21.50;;;;;;;;;;4993651;28;20088;-88
2023/04/08 04:46:46;;;;;;;33.13;23.52;;;;;;;;;;5004189;28;20042;-89
2023/04/08 04:49:12;;;;;;;32.30;23.10;;;;;;;;;;4987700;28;20182;-89
2023/04/08 04:51:38;;;;;;;33.55;22.38;;;;;;;;;;5003296;28;20054;-88
2023/04/08 04:54:04;;;;;;;35.90;24.42;;;;;;;;;;5004769;28;20050;-88
2023/04/08 04:56:31;;;;;;;37.22;24.90;;;;;;;;;;5005684;28;20050;-89
2023/04/08 04:58:57;;;;;;;34.53;24.33;;;;;;;;;;5005127;28;20066;-89
2023/04/08 05:01:23;;;;;;;38.15;24.00;;;;;;;;;;4985868;28;20042;-88
2023/04/08 05:03:49;;;;;;;39.80;24.85;;;;;;;;;;5004559;28;20049;-88
2023/04/08 05:06:15;;;;;;;39.47;25.13;;;;;;;;;;5004295;28;20061;-88
2023/04/08 05:08:41;;;;;;;37.42;24.75;;;;;;;;;;5001463;28;20082;-88
2023/04/08 05:11:10;;;;;;;37.63;24.33;;;;;;;;;;4988590;28;20185;-88
2023/04/08 05:13:36;;;;;;;40.45;24.33;;;;;;;;;;5002019;28;20102;-89
2023/04/08 05:16:03;;;;;;;34.88;24.98;;;;;;;;;;4986425;28;20121;-89
2023/04/08 05:18:29;;;;;;;39.72;24.70;;;;;;;;;;5004316;28;20058;-89
2023/04/08 05:20:55;;;;;;;36.60;24.65;;;;;;;;;;5003416;28;20061;-89
2023/04/08 05:23:21;;;;;;;34.55;23.70;;;;;;;;;;5005114;28;20038;-88
2023/04/08 05:25:47;;;;;;;34.42;23.60;;;;;;;;;;5002738;28;20057;-89
2023/04/08 05:28:13;;;;;;;33.28;22.38;;;;;;;;;;5000093;28;20042;-88
2023/04/08 05:30:39;;;;;;;34.67;23.40;;;;;;;;;;5002677;28;20145;-88
2023/04/08 05:33:05;;;;;;;36.47;23.95;;;;;;;;;;4998948;28;20198;-87
2023/04/08 05:35:31;;;;;;;35.22;22.70;;;;;;;;;;5000959;28;20042;-89
2023/04/08 05:38:00;;;;;;;33.67;22.77;;;;;;;;;;4987306;28;20078;-88
2023/04/08 05:40:26;;;;;;;34.30;23.95;;;;;;;;;;5000245;28;20094;-88
2023/04/08 05:42:52;;;;;;;37.22;25.73;;;;;;;;;;4996796;28;20039;-88
2023/04/08 05:45:18;;;;;;;31.88;23.50;;;;;;;;;;5000950;28;20045;-88
2023/04/08 05:47:44;;;;;;;28.77;22.40;;;;;;;;;;5000817;28;20570;-88
2023/04/08 05:50:11;;;;;;;28.38;22.02;;;;;;;;;;5004237;28;20053;-90
2023/04/08 05:52:37;;;;;;;29.13;21.75;;;;;;;;;;5003288;28;20046;-88
2023/04/08 05:55:03;;;;;;;29.98;21.90;;;;;;;;;;4999556;28;20055;-88
2023/04/08 05:57:29;;;;;;;28.42;21.67;;;;;;;;;;4996792;28;20042;-88
2023/04/08 05:59:55;;;;;;;28.58;22.48;;;;;;;;;;4997231;28;20069;-89
2023/04/08 06:02:21;;;;;;;26.85;21.17;;;;;;;;;;5003376;28;20097;-88
2023/04/08 06:04:47;;;;;;;26.05;21.05;;;;;;;;;;4997840;28;20567;-87
2023/04/08 06:07:13;;;;;;;25.08;20.42;;;;;;;;;;4984109;28;20077;-88
2023/04/08 06:09:39;;;;;;;26.83;20.77;;;;;;;;;;5000161;28;20408;-88
2023/04/08 06:12:05;;;;;;;23.33;19.20;;;;;;;;;;4996531;28;20046;-87
2023/04/08 06:14:32;;;;;;;24.25;20.33;;;;;;;;;;4997722;28;20072;-87
2023/04/08 06:16:58;;;;;;;22.33;19.52;;;;;;;;;;4999554;28;20046;-89
2023/04/08 06:19:24;;;;;;;23.55;18.88;;;;;;;;;;4998716;28;20084;-87
2023/04/08 06:21:50;;;;;;;23.50;19.08;;;;;;;;;;5003314;28;20128;-87
2023/04/08 06:24:19;;;;;;;23.63;19.75;;;;;;;;;;4996841;28;20118;-87
2023/04/08 06:26:46;;;;;;;21.35;18.42;;;;;;;;;;4995836;28;20050;-87
2023/04/08 06:29:12;;;;;;;21.23;18.65;;;;;;;;;;4994772;28;20125;-88
2023/04/08 06:31:38;;;;;;;20.65;18.35;;;;;;;;;;4999141;28;20096;-87
2023/04/08 06:34:05;;;;;;;20.98;17.08;;;;;;;;;;4999160;28;20488;-87
2023/04/08 06:36:31;;;;;;;22.15;18.13;;;;;;;;;;5015398;28;20066;-87
2023/04/08 06:38:57;;;;;;;20.95;17.48;;;;;;;;;;5016686;28;20054;-86
2023/04/08 06:41:23;;;;;;;19.25;17.15;;;;;;;;;;5007963;28;20448;-87
2023/04/08 06:43:49;;;;;;;20.98;16.75;;;;;;;;;;5001877;28;20042;-88
2023/04/08 06:46:15;;;;;;;18.85;16.85;;;;;;;;;;5002595;28;20050;-88
2023/04/08 06:48:41;;;;;;;19.95;17.30;;;;;;;;;;4992542;28;20579;-88
2023/04/08 06:51:07;;;;;;;21.17;17.23;;;;;;;;;;4992253;28;20385;-88
2023/04/08 06:53:33;;;;;;;19.85;17.33;;;;;;;;;;4987690;28;20050;-88
2023/04/08 06:56:00;;;;;;;20.92;17.40;;;;;;;;;;4994753;28;20046;-88
2023/04/08 06:58:26;;;;;;;21.45;17.00;;;;;;;;;;4993605;28;20041;-87
2023/04/08 07:00:54;;;;;;;23.33;18.38;;;;;;;;;;5003085;28;20104;-89
2023/04/08 07:03:20;;;;;;;20.65;17.02;;;;;;;;;;4999489;28;20046;-89
2023/04/08 07:05:47;;;;;;;20.23;16.60;;;;;;;;;;4995725;28;20042;-89
2023/04/08 07:08:13;;;;;;;20.73;17.52;;;;;;;;;;4994328;28;20098;-87
2023/04/08 07:10:39;;;;;;;17.55;14.77;;;;;;;;;;4995690;28;20065;-88
2023/04/08 07:13:05;;;;;;;20.73;17.17;;;;;;;;;;4998366;28;20046;-87
2023/04/08 07:15:31;;;;;;;20.88;16.58;;;;;;;;;;5002433;28;20124;-86
2023/04/08 07:17:58;;;;;;;20.55;16.27;;;;;;;;;;4999579;28;20113;-87
2023/04/08 07:20:25;;;;;;;19.73;16.33;;;;;;;;;;5001274;28;20089;-87
2023/04/08 07:22:51;;;;;;;19.63;16.70;;;;;;;;;;5000828;28;20132;-87
2023/04/08 07:25:17;;;;;;;20.45;16.55;;;;;;;;;;4999478;28;20104;-87
2023/04/08 07:27:43;;;;;;;20.65;17.27;;;;;;;;;;5000751;28;20038;-87
2023/04/08 07:30:09;;;;;;;19.92;17.08;;;;;;;;;;5000055;28;20192;-87
2023/04/08 07:32:36;;;;;;;18.92;15.20;;;;;;;;;;5000920;28;20046;-87
2023/04/08 07:35:02;;;;;;;18.83;16.42;;;;;;;;;;4996144;28;20047;-86
2023/04/08 07:37:28;;;;;;;19.10;15.93;;;;;;;;;;4999321;28;20042;-86
2023/04/08 07:39:54;;;;;;;20.00;16.25;;;;;;;;;;4999019;28;20096;-87
2023/04/08 07:42:21;;;;;;;21.15;16.55;;;;;;;;;;5000388;28;20098;-87
2023/04/08 07:44:47;;;;;;;19.08;16.85;;;;;;;;;;5000056;28;20050;-87
2023/04/08 07:47:14;;;;;;;18.73;15.60;;;;;;;;;;5002399;28;20043;-87
2023/04/08 07:49:40;;;;;;;17.67;15.38;;;;;;;;;;5002397;28;20501;-88
2023/04/08 07:52:06;;;;;;;20.70;15.95;;;;;;;;;;4997481;28;20053;-87
2023/04/08 07:54:33;;;;;;;18.30;16.00;;;;;;;;;;4999847;28;20042;-83
2023/04/08 07:57:00;;;;;;;19.02;16.25;;;;;;;;;;4994163;28;20042;-82
2023/04/08 07:59:26;;;;;;;19.33;16.42;;;;;;;;;;4997007;28;20046;-86
2023/04/08 08:01:53;;;;;;;19.27;16.33;;;;;;;;;;4999175;28;20070;-87
2023/04/08 08:04:18;;;;;;;19.17;15.93;;;;;;;;;;4987685;28;20038;-88
2023/04/08 08:06:45;;;;;;;19.75;17.00;;;;;;;;;;4986690;28;20464;-88
2023/04/08 08:09:14;;;;;;;18.38;15.80;;;;;;;;;;5001445;28;20039;-88
2023/04/08 08:11:40;;;;;;;20.63;17.42;;;;;;;;;;4998684;28;20203;-87
2023/04/08 08:14:06;;;;;;;21.67;18.77;;;;;;;;;;4985681;28;20089;-86
2023/04/08 08:16:32;;;;;;;21.05;17.70;;;;;;;;;;4999274;28;20046;-87
2023/04/08 08:18:59;;;;;;;19.13;16.08;;;;;;;;;;4992659;28;20053;-88
2023/04/08 08:21:25;;;;;;;20.45;16.50;;;;;;;;;;4999647;28;20096;-87
2023/04/08 08:23:53;;;;;;;21.25;17.73;;;;;;;;;;4999198;28;20056;-88
2023/04/08 08:26:20;;;;;;;21.70;15.35;;;;;;;;;;4992307;28;20070;-87
2023/04/08 08:28:46;;;;;;;22.45;18.42;;;;;;;;;;4995709;28;20052;-87
2023/04/08 08:31:12;;;;;;;22.60;17.27;;;;;;;;;;5000167;28;20073;-89
2023/04/08 08:33:38;;;;;;;23.55;20.27;;;;;;;;;;5000224;28;20065;-88
2023/04/08 08:36:05;;;;;;;23.05;19.73;;;;;;;;;;4998888;28;20172;-87
2023/04/08 08:38:31;;;;;;;21.77;17.75;;;;;;;;;;4999219;28;20101;-88
2023/04/08 08:40:58;;;;;;;24.73;19.67;;;;;;;;;;4993829;28;20086;-87
2023/04/08 08:43:25;;;;;;;25.13;22.42;;;;;;;;;;4998517;28;20066;-86
2023/04/08 08:45:51;;;;;;;26.17;22.52;;;;;;;;;;5000565;28;20047;-87
2023/04/08 08:48:17;;;;;;;25.55;21.98;;;;;;;;;;4999054;28;20043;-85
2023/04/08 08:50:43;;;;;;;25.45;21.88;;;;;;;;;;4998217;28;20077;-87
2023/04/08 08:53:09;;;;;;;26.15;21.83;;;;;;;;;;4993623;28;20057;-86
2023/04/08 08:55:35;;;;;;;26.42;21.42;;;;;;;;;;4997765;28;20564;-88
2023/04/08 08:58:01;;;;;;;25.95;20.67;;;;;;;;;;5000305;28;20061;-87
2023/04/08 09:00:30;;;;;;;24.60;20.75;;;;;;;;;;5002383;28;20423;-87
2023/04/08 09:02:57;;;;;;;23.75;19.88;;;;;;;;;;4980729;28;20105;-88
2023/04/08 09:05:23;;;;;;;25.77;21.13;;;;;;;;;;5002950;28;20516;-86
2023/04/08 09:07:49;;;;;;;23.17;19.77;;;;;;;;;;4997205;28;20054;-87
2023/04/08 09:10:15;;;;;;;23.45;19.73;;;;;;;;;;5006975;28;20062;-85
2023/04/08 09:12:55;;;;;;;23.75;18.85;;;;;;;;;;5016692;28;20042;-89
2023/04/08 09:15:21;;;;;;;23.83;19.17;;;;;;;;;;5018561;28;20030;-89
2023/04/08 09:17:47;;;;;;;24.30;19.52;;;;;;;;;;5012711;28;20122;-88
2023/04/08 09:20:14;;;;;;;22.73;18.58;;;;;;;;;;5004185;28;20046;-89
2023/04/08 09:22:59;;;;;;;23.35;18.70;;;;;;;;;;5001978;28;20046;-89
2023/04/08 09:25:27;;;;;;;24.50;20.23;;;;;;;;;;4986288;28;20523;-89
2023/04/08 09:27:53;;;;;;;23.13;19.35;;;;;;;;;;5000977;28;20047;-89
2023/04/08 09:30:20;;;;;;;22.95;19.45;;;;;;;;;;5003936;28;20042;-89
2023/04/08 09:32:56;;;;;;;23.70;19.92;;;;;;;;;;5000288;28;20126;-89
2023/04/08 09:35:23;;;;;;;22.58;18.73;;;;;;;;;;4998568;28;20127;-90
2023/04/08 09:37:50;;;;;;;23.27;19.17;;;;;;;;;;4999105;28;20080;-89
2023/04/08 09:40:17;;;;;;;24.63;18.58;;;;;;;;;;5003074;28;20069;-89
2023/04/08 09:42:47;;;;;;;24.67;18.58;;;;;;;;;;4996704;28;20039;-89
2023/04/08 09:45:15;;;;;;;22.60;18.67;;;;;;;;;;5000455;28;20046;-91
2023/04/08 09:47:48;;;;;;;25.17;19.60;;;;;;;;;;4997650;28;20042;-89
2023/04/08 09:50:16;;;;;;;23.27;18.95;;;;;;;;;;4997836;28;20042;-89
2023/04/08 09:52:44;;;;;;;24.75;20.20;;;;;;;;;;4997766;28;20077;-89
2023/04/08 09:55:12;;;;;;;23.33;19.15;;;;;;;;;;4991978;28;20046;-90
2023/04/08 09:57:42;;;;;;;22.88;19.98;;;;;;;;;;4997099;28;21922;-89
2023/04/08 10:00:09;;;;;;;21.60;17.83;;;;;;;;;;4994786;28;20073;-89
2023/04/08 10:02:40;;;;;;;20.60;16.92;;;;;;;;;;4993785;28;20497;-89
2023/04/08 10:05:07;;;;;;;20.05;16.15;;;;;;;;;;4998248;28;20046;-89
2023/04/08 10:07:35;;;;;;;21.88;17.65;;;;;;;;;;4996358;28;20068;-89
2023/04/08 10:10:02;;;;;;;20.42;16.83;;;;;;;;;;4993482;28;20067;-90
2023/04/08 10:12:28;;;;;;;22.05;16.23;;;;;;;;;;4994805;28;20046;-89
2023/04/08 10:15:13;;;;;;;22.48;17.35;;;;;;;;;;4992824;28;20055;-89
2023/04/08 10:17:39;;;;;;;23.75;17.98;;;;;;;;;;4998455;28;20053;-88
2023/04/08 10:20:25;;;;;;;25.38;19.05;;;;;;;;;;5000756;28;20100;-88
2023/04/08 10:22:51;;;;;;;24.23;18.33;;;;;;;;;;4998421;28;20046;-89
2023/04/08 10:25:17;;;;;;;25.92;20.23;;;;;;;;;;4995871;28;20038;-88
2023/04/08 10:27:47;;;;;;;24.75;19.95;;;;;;;;;;5001884;28;20338;-89
2023/04/08 10:30:30;;;;;;;22.65;18.58;;;;;;;;;;4998890;28;20042;-88
2023/04/08 10:33:00;;;;;;;23.15;18.77;;;;;;;;;;4999715;28;20125;-88
2023/04/08 10:35:36;;;;;;;23.25;18.90;;;;;;;;;;4999738;28;20118;-89
2023/04/08 10:38:02;;;;;;;24.77;18.25;;;;;;;;;;5000305;28;20121;-89
2023/04/08 10:40:29;;;;;;;23.60;20.20;;;;;;;;;;4997056;28;20038;-89
2023/04/08 10:42:59;;;;;;;25.20;18.98;;;;;;;;;;4997226;28;20393;-88
2023/04/08 10:45:25;;;;;;;22.65;18.33;;;;;;;;;;5000886;28;20042;-89
2023/04/08 10:47:51;;;;;;;22.52;17.92;;;;;;;;;;4997665;28;20053;-88
2023/04/08 10:50:22;;;;;;;25.25;18.63;;;;;;;;;;4999850;28;20412;-88
2023/04/08 10:52:48;;;;;;;23.58;18.90;;;;;;;;;;4996559;28;20058;-88
2023/04/08 10:55:15;;;;;;;25.38;19.40;;;;;;;;;;4998512;28;20050;-90
2023/04/08 10:57:41;;;;;;;22.08;17.08;;;;;;;;;;4996426;28;20050;-89
2023/04/08 11:00:11;;;;;;;25.30;20.70;;;;;;;;;;4996264;28;20050;-88
2023/04/08 11:02:38;;;;;;;25.48;20.65;;;;;;;;;;5001761;28;20588;-89
2023/04/08 11:05:04;;;;;;;23.63;18.73;;;;;;;;;;5002160;28;20053;-87
2023/04/08 11:07:30;;;;;;;25.80;19.48;;;;;;;;;;5003057;28;20034;-88
2023/04/08 11:09:56;;;;;;;23.33;19.33;;;;;;;;;;4999047;28;20047;-90
2023/04/08 11:12:22;;;;;;;23.38;19.10;;;;;;;;;;4997031;28;20055;-89
2023/04/08 11:14:51;;;;;;;23.88;18.77;;;;;;;;;;4994151;28;20505;-88
2023/04/08 11:17:18;;;;;;;25.77;19.13;;;;;;;;;;5000187;28;20076;-89
2023/04/08 11:19:44;;;;;;;25.08;19.40;;;;;;;;;;5005479;28;20050;-88
2023/04/08 11:22:12;;;;;;;26.45;19.45;;;;;;;;;;4985961;28;20440;-87
2023/04/08 11:24:38;;;;;;;28.55;21.45;;;;;;;;;;5002184;28;20046;-89
2023/04/08 11:27:07;;;;;;;24.83;19.55;;;;;;;;;;5001096;28;20129;-89
2023/04/08 11:29:33;;;;;;;27.33;19.92;;;;;;;;;;4999915;28;20042;-89
2023/04/08 11:32:00;;;;;;;26.08;21.00;;;;;;;;;;4986653;28;20057;-88
2023/04/08 11:34:27;;;;;;;27.85;21.80;;;;;;;;;;5001917;28;20042;-88
2023/04/08 11:36:53;;;;;;;27.73;20.95;;;;;;;;;;5000104;28;20417;-87
2023/04/08 11:39:22;;;;;;;27.30;20.17;;;;;;;;;;5000952;28;20053;-88
2023/04/08 11:41:49;;;;;;;27.25;20.70;;;;;;;;;;4985213;28;20073;-87
2023/04/08 11:44:15;;;;;;;27.38;18.90;;;;;;;;;;4992735;28;20046;-88
2023/04/08 11:46:41;;;;;;;26.38;20.63;;;;;;;;;;5017810;28;20034;-85
2023/04/08 11:49:08;;;;;;;29.48;20.73;;;;;;;;;;5006564;28;20102;-89
2023/04/08 11:51:36;;;;;;;31.25;22.63;;;;;;;;;;4993893;28;20042;-86
2023/04/08 11:54:06;;;;;;;55.70;31.15;;;;;;;;;;4995018;28;20046;-88
2023/04/08 11:56:44;;;;;;;32.35;23.83;;;;;;;;;;4996471;28;20180;-88
2023/04/08 11:59:10;;;;;;;34.65;25.05;;;;;;;;;;4995677;28;20070;-89
2023/04/08 12:01:36;;;;;;;40.95;27.75;;;;;;;;;;4994761;28;20077;-88
2023/04/08 12:04:03;;;;;;;37.58;28.20;;;;;;;;;;4995249;28;20050;-87
2023/04/08 12:06:30;;;;;;;39.38;27.38;;;;;;;;;;4995488;28;20046;-88
2023/04/08 12:08:56;;;;;;;38.30;28.92;;;;;;;;;;4996836;28;20038;-89
2023/04/08 12:11:23;;;;;;;41.58;29.42;;;;;;;;;;5002172;28;20054;-88
2023/04/08 12:13:50;;;;;;;41.83;30.25;;;;;;;;;;4997762;28;20481;-87
2023/04/08 12:16:16;;;;;;;46.78;33.20;;;;;;;;;;4998760;28;20046;-87
2023/04/08 12:18:42;;;;;;;44.78;33.83;;;;;;;;;;4997921;28;20057;-89
2023/04/08 12:21:08;;;;;;;47.33;33.60;;;;;;;;;;4996346;28;20046;-88
2023/04/08 12:23:34;;;;;;;47.00;34.35;;;;;;;;;;4996317;28;20477;-88
2023/04/08 12:26:01;;;;;;;46.97;34.47;;;;;;;;;;4997086;28;20042;-89
2023/04/08 12:28:27;;;;;;;44.45;32.50;;;;;;;;;;5000271;28;20130;-89
2023/04/08 12:30:53;;;;;;;40.03;28.77;;;;;;;;;;5000628;28;20050;-88
2023/04/08 12:33:19;;;;;;;41.55;31.45;;;;;;;;;;4993221;28;20055;-88
2023/04/08 12:35:45;;;;;;;44.85;32.05;;;;;;;;;;4993266;28;20051;-89
2023/04/08 12:38:11;;;;;;;43.95;32.88;;;;;;;;;;5002533;28;20078;-88
2023/04/08 12:40:37;;;;;;;42.53;30.80;;;;;;;;;;5006482;28;20089;-88
2023/04/08 12:43:03;;;;;;;42.03;30.60;;;;;;;;;;5001771;28;20451;-88
2023/04/08 12:45:29;;;;;;;43.58;32.88;;;;;;;;;;5003326;28;20085;-88
2023/04/08 12:47:56;;;;;;;45.40;32.47;;;;;;;;;;4994140;28;20051;-88
2023/04/08 12:50:22;;;;;;;43.50;31.67;;;;;;;;;;4999579;28;20062;-88
2023/04/08 12:52:48;;;;;;;44.63;33.38;;;;;;;;;;5007438;28;20087;-88
2023/04/08 12:55:15;;;;;;;46.55;36.20;;;;;;;;;;4989156;28;20136;-87
2023/04/08 12:57:41;;;;;;;48.45;35.17;;;;;;;;;;5005231;28;20065;-87
2023/04/08 13:00:08;;;;;;;49.60;36.50;;;;;;;;;;5004585;28;20050;-88
2023/04/08 13:02:34;;;;;;;52.22;37.92;;;;;;;;;;5003870;28;20046;-88
2023/04/08 13:05:00;;;;;;;50.95;38.08;;;;;;;;;;5000659;28;20038;-89
2023/04/08 13:07:26;;;;;;;51.33;37.92;;;;;;;;;;5003446;28;20050;-88
2023/04/08 13:09:52;;;;;;;52.90;38.92;;;;;;;;;;4984855;28;20049;-87
2023/04/08 13:12:18;;;;;;;53.22;41.22;;;;;;;;;;4986569;28;20104;-88
2023/04/08 13:14:45;;;;;;;57.15;39.22;;;;;;;;;;5001922;28;20041;-87
2023/04/08 13:17:11;;;;;;;55.80;40.53;;;;;;;;;;5003601;28;20057;-88
2023/04/08 13:19:37;;;;;;;52.38;39.75;;;;;;;;;;4998498;28;20050;-89
2023/04/08 13:22:03;;;;;;;58.85;43.13;;;;;;;;;;4991032;28;20082;-88
2023/04/08 13:24:29;;;;;;;59.45;40.95;;;;;;;;;;4996502;28;20049;-88
2023/04/08 13:26:56;;;;;;;63.58;42.35;;;;;;;;;;4992495;28;20059;-86
2023/04/08 13:29:22;;;;;;;55.08;41.50;;;;;;;;;;5000927;28;20050;-86
2023/04/08 13:31:50;;;;;;;56.08;41.63;;;;;;;;;;5005840;28;20050;-87
2023/04/08 13:34:16;;;;;;;57.92;44.65;;;;;;;;;;4985502;28;20173;-90
2023/04/08 13:36:42;;;;;;;63.17;47.22;;;;;;;;;;5001161;28;20049;-88
2023/04/08 13:39:08;;;;;;;64.60;48.03;;;;;;;;;;4999691;28;20050;-90
2023/04/08 13:41:34;;;;;;;65.43;49.58;;;;;;;;;;4987456;28;20181;-87
2023/04/08 13:44:00;;;;;;;63.28;49.33;;;;;;;;;;4993728;28;20045;-88
2023/04/08 13:46:26;;;;;;;62.50;48.22;;;;;;;;;;4995925;28;20050;-88
2023/04/08 13:48:52;;;;;;;65.38;48.97;;;;;;;;;;4997750;28;20042;-90
2023/04/08 13:51:18;;;;;;;63.45;49.47;;;;;;;;;;4995341;28;20069;-89
2023/04/08 13:53:45;;;;;;;62.58;48.17;;;;;;;;;;4996386;28;20043;-87
2023/04/08 13:56:11;;;;;;;63.67;50.47;;;;;;;;;;4999108;28;20432;-87
2023/04/08 13:58:37;;;;;;;70.82;50.47;;;;;;;;;;5003675;28;20123;-88
2023/04/08 14:01:03;;;;;;;71.32;51.65;;;;;;;;;;4988872;28;20038;-88
2023/04/08 14:03:29;;;;;;;66.10;51.70;;;;;;;;;;5005937;28;20583;-88
2023/04/08 14:05:55;;;;;;;69.38;53.53;;;;;;;;;;5002794;28;20050;-88
2023/04/08 14:08:24;;;;;;;68.90;53.65;;;;;;;;;;5004698;28;20050;-87
2023/04/08 14:10:56;;;;;;;69.95;52.80;;;;;;;;;;5004165;28;20512;-86
2023/04/08 14:13:22;;;;;;;68.70;53.50;;;;;;;;;;5004637;28;20054;-88
2023/04/08 14:15:48;;;;;;;65.97;51.05;;;;;;;;;;5000727;28;20408;-87
2023/04/08 14:18:18;;;;;;;69.68;51.33;;;;;;;;;;4997328;28;20134;-86